Terminal Aerodrome Forecast
Issued by NWS Tulsa, OK

Home | Current Version | Previous Version | Text Only | Print | Product List | Glossary On
Versions: 1 2 3 4 5 6 7 8 9 10 11 12 13 14 15 16 17 18 19 20 21 22 23 24 25 26 27 28 29 30 31 32 33 34 35 36
000
FTUS44 KTSA 182330
TAFFSM
TAF
KFSM 182330Z 1900/1924 10010KT P6SM BKN025
      TEMPO 1904/1908 4SM TSRA BR BKN012CB
     FM190800 30013KT 6SM -SHRA BR OVC012
     FM191200 30022G30KT 5SM -RASN OVC012
     FM191500 30024G32KT 4SM -SN OVC012
     FM191900 31024G30KT P6SM OVC025=

USA.gov is the U.S. government's official web portal to all federal, state and local government web resources and services.